Time;durP1;ratioP1;P1;durP2;ratioP2;P2;SDS_P1;SDS_P2;PMS_P1;PMS_P2;Temp;Humidity;BMP_temperature;BMP_pressure;BME280_temperature;BME280_humidity;BME280_pressure;Samples;Min_cycle;Max_cycle;Signal;HPM_P1;HPM_P2
2022/09/24 00:01:49;;;;;;;8.53;7.93;;;11.50;1.00;;;;;;6272957;28;20233;-54
2022/09/24 00:04:52;;;;;;;9.43;8.83;;;11.50;1.00;;;;;;6273258;28;20234;-54
2022/09/24 00:07:55;;;;;;;9.00;8.40;;;11.40;1.00;;;;;;6281886;28;20249;-54
2022/09/24 00:11:02;;;;;;;6.73;6.43;;;11.40;1.00;;;;;;6282973;28;20287;-53
2022/09/24 00:14:05;;;;;;;8.70;8.10;;;11.30;1.00;;;;;;6283454;28;20233;-54
2022/09/24 00:17:08;;;;;;;9.60;8.67;;;11.30;1.00;;;;;;6269131;28;20253;-53
2022/09/24 00:20:11;;;;;;;9.50;8.80;;;11.30;1.00;;;;;;6270893;28;20237;-58
2022/09/24 00:23:14;;;;;;;8.07;7.67;;;11.30;1.00;;;;;;6282859;28;20229;-54
2022/09/24 00:29:40;;;;;;;8.90;8.37;;;11.20;1.00;;;;;;6282925;28;20321;-54
2022/09/24 00:32:43;;;;;;;8.20;7.63;;;11.20;1.00;;;;;;6279134;28;20241;-54
2022/09/24 00:35:46;;;;;;;7.97;7.37;;;11.20;1.00;;;;;;6285455;28;20357;-54
2022/09/24 00:38:50;;;;;;;7.23;6.93;;;11.10;1.00;;;;;;6257461;28;20242;-54
2022/09/24 00:41:54;;;;;;;8.50;7.90;;;11.10;1.00;;;;;;6258410;28;20238;-54
2022/09/24 00:44:57;;;;;;;8.80;8.23;;;11.10;1.00;;;;;;6257662;28;20230;-54
2022/09/24 00:48:01;;;;;;;8.63;8.03;;;11.10;1.00;;;;;;6257848;28;20241;-54
2022/09/24 00:51:05;;;;;;;10.20;9.37;;;11.00;1.00;;;;;;6266705;28;20237;-54
2022/09/24 00:54:22;;;;;;;8.87;8.37;;;11.00;1.00;;;;;;6282512;28;20241;-53
2022/09/24 00:57:27;;;;;;;9.93;9.23;;;11.00;1.00;;;;;;6279942;28;20250;-53
2022/09/24 01:00:30;;;;;;;8.80;8.07;;;11.00;1.00;;;;;;6261233;28;20237;-54
2022/09/24 01:03:39;;;;;;;9.13;8.43;;;11.00;1.00;;;;;;6278163;28;20788;-54
2022/09/24 01:06:43;;;;;;;9.07;8.40;;;11.00;1.00;;;;;;6289822;28;20244;-53
2022/09/24 01:09:46;;;;;;;8.63;8.13;;;10.90;1.00;;;;;;6281963;28;20241;-54
2022/09/24 01:12:58;;;;;;;8.77;8.07;;;10.90;1.00;;;;;;6267419;28;20390;-53
2022/09/24 01:16:07;;;;;;;9.70;8.90;;;11.00;1.00;;;;;;6258647;28;20718;-53
2022/09/24 01:19:26;;;;;;;8.87;8.27;;;10.90;1.00;;;;;;6260558;28;20225;-54
2022/09/24 01:22:42;;;;;;;9.67;8.77;;;10.90;1.00;;;;;;6268422;28;20249;-53
2022/09/24 01:25:57;;;;;;;10.03;9.23;;;10.90;1.00;;;;;;6257752;28;20261;-53
2022/09/24 01:29:24;;;;;;;7.87;7.37;;;10.90;1.00;;;;;;6257385;28;20231;-54
2022/09/24 01:32:37;;;;;;;9.80;9.00;;;10.90;1.00;;;;;;6259348;28;20606;-54
2022/09/24 01:35:44;;;;;;;9.53;8.80;;;10.90;1.00;;;;;;6286851;28;20480;-54
2022/09/24 01:38:49;;;;;;;8.87;8.23;;;10.90;1.00;;;;;;6274468;28;20248;-54
2022/09/24 01:41:56;;;;;;;8.70;8.20;;;10.90;1.00;;;;;;6257729;28;20505;-60
2022/09/24 01:45:01;;;;;;;9.33;8.67;;;10.90;1.00;;;;;;6258567;28;20233;-53
2022/09/24 01:48:06;;;;;;;10.50;9.60;;;10.90;1.00;;;;;;6257352;28;20390;-60
2022/09/24 01:51:13;;;;;;;9.67;8.80;;;10.90;1.00;;;;;;6277956;28;20240;-53
2022/09/24 01:54:20;;;;;;;9.77;9.17;;;10.90;1.00;;;;;;6282138;28;20238;-54
2022/09/24 01:57:28;;;;;;;8.80;8.30;;;10.90;1.00;;;;;;6269632;28;20729;-56
2022/09/24 02:00:31;;;;;;;10.40;9.30;;;11.00;1.00;;;;;;6261748;28;20239;-53
2022/09/24 02:03:42;;;;;;;9.63;8.93;;;11.00;1.00;;;;;;6282835;28;20229;-54
2022/09/24 02:06:50;;;;;;;10.47;9.67;;;11.00;1.00;;;;;;6302621;28;20638;-54
2022/09/24 02:09:53;;;;;;;8.90;8.40;;;11.00;1.00;;;;;;6311971;28;20237;-53
2022/09/24 02:13:02;;;;;;;9.97;9.17;;;11.00;1.00;;;;;;6293322;28;20256;-54
2022/09/24 02:16:07;;;;;;;8.83;8.13;;;11.00;1.00;;;;;;6285979;28;20236;-54
2022/09/24 02:19:16;;;;;;;9.60;9.00;;;11.00;1.00;;;;;;6284842;28;20240;-54
2022/09/24 02:22:20;;;;;;;9.40;8.80;;;11.00;1.00;;;;;;6277593;28;20229;-54
2022/09/24 02:25:30;;;;;;;9.40;8.70;;;11.00;1.00;;;;;;6286276;28;20360;-54
2022/09/24 02:28:34;;;;;;;9.67;8.97;;;11.00;1.00;;;;;;6266575;28;20253;-54
2022/09/24 02:31:40;;;;;;;10.07;9.27;;;11.00;1.00;;;;;;6261169;28;20245;-53
2022/09/24 02:34:48;;;;;;;10.27;9.53;;;11.00;1.00;;;;;;6285766;28;20320;-53
2022/09/24 02:37:51;;;;;;;9.00;8.40;;;11.00;1.00;;;;;;6266263;28;20726;-54
2022/09/24 02:40:54;;;;;;;9.00;8.27;;;11.00;1.00;;;;;;6300757;28;20241;-53
2022/09/24 02:43:57;;;;;;;9.47;8.80;;;11.00;1.00;;;;;;6285168;28;20228;-52
2022/09/24 02:47:00;;;;;;;9.07;8.47;;;11.00;1.00;;;;;;6279778;28;20236;-54
2022/09/24 02:50:05;;;;;;;10.47;9.60;;;11.10;1.00;;;;;;6285843;28;20233;-54
2022/09/24 02:53:08;;;;;;;9.40;8.73;;;11.00;1.00;;;;;;6285837;28;20604;-53
2022/09/24 02:56:11;;;;;;;7.97;7.53;;;11.10;1.00;;;;;;6282981;28;20256;-54
2022/09/24 02:59:14;;;;;;;9.40;8.70;;;11.10;1.00;;;;;;6285112;28;20233;-54
2022/09/24 03:02:17;;;;;;;9.33;8.60;;;11.10;1.00;;;;;;6285177;28;20229;-53
2022/09/24 03:05:21;;;;;;;9.93;9.23;;;11.10;1.00;;;;;;6291433;28;20221;-54
2022/09/24 03:08:25;;;;;;;9.97;9.23;;;11.10;1.00;;;;;;6284809;28;20468;-53
2022/09/24 03:11:28;;;;;;;10.17;9.47;;;11.10;1.00;;;;;;6300319;28;20728;-54
2022/09/24 03:14:31;;;;;;;10.00;9.40;;;11.10;1.00;;;;;;6273410;28;20230;-53
2022/09/24 03:17:34;;;;;;;10.53;9.73;;;11.20;1.00;;;;;;6259650;28;20233;-55
2022/09/24 03:20:38;;;;;;;10.50;9.70;;;11.20;1.00;;;;;;6275538;28;20234;-54
2022/09/24 03:23:42;;;;;;;9.23;8.67;;;11.20;1.00;;;;;;6277561;28;20649;-53
2022/09/24 03:26:44;;;;;;;9.80;9.20;;;11.20;1.00;;;;;;6284546;28;20253;-55
2022/09/24 03:33:08;;;;;;;10.67;9.87;;;11.10;1.00;;;;;;6266000;28;20733;-54
2022/09/24 03:36:14;;;;;;;10.03;9.33;;;11.10;1.00;;;;;;6297798;28;20230;-54
2022/09/24 03:39:17;;;;;;;11.07;9.90;;;11.10;1.00;;;;;;6283826;28;20244;-54
2022/09/24 03:42:20;;;;;;;10.50;9.80;;;11.10;1.00;;;;;;6285625;28;20242;-53
2022/09/24 03:45:23;;;;;;;9.90;9.00;;;11.10;1.00;;;;;;6279774;28;20241;-53
2022/09/24 03:48:26;;;;;;;9.60;8.90;;;11.10;1.00;;;;;;6274097;28;20777;-54
2022/09/24 03:51:31;;;;;;;9.40;8.80;;;11.10;1.00;;;;;;6278618;28;20237;-54
2022/09/24 03:54:33;;;;;;;9.60;9.00;;;11.10;1.00;;;;;;6285616;28;20249;-55
2022/09/24 03:57:36;;;;;;;9.33;8.83;;;11.00;1.00;;;;;;6274638;28;20249;-54
2022/09/24 04:00:39;;;;;;;10.47;9.67;;;11.00;1.00;;;;;;6275377;28;20589;-54
2022/09/24 04:03:43;;;;;;;9.87;9.27;;;11.00;1.00;;;;;;6283358;28;20244;-55
2022/09/24 04:06:47;;;;;;;10.37;9.40;;;11.00;1.00;;;;;;6279413;28;20242;-54
2022/09/24 04:09:50;;;;;;;9.60;8.63;;;11.00;1.00;;;;;;6274485;28;20238;-54
2022/09/24 04:12:54;;;;;;;10.20;9.50;;;11.00;1.00;;;;;;6284599;28;20352;-54
2022/09/24 04:16:01;;;;;;;9.00;8.50;;;11.00;1.00;;;;;;6278436;28;20491;-54
2022/09/24 04:19:06;;;;;;;10.47;9.70;;;11.00;1.00;;;;;;6278469;28;20229;-53
2022/09/24 04:22:10;;;;;;;9.83;9.00;;;11.00;1.00;;;;;;6282705;28;20623;-53
2022/09/24 04:25:13;;;;;;;11.57;10.67;;;11.00;1.00;;;;;;6252036;28;20236;-54
2022/09/24 04:28:16;;;;;;;10.17;9.37;;;11.00;1.00;;;;;;6282070;28;20222;-53
2022/09/24 04:31:20;;;;;;;8.17;7.77;;;11.00;1.00;;;;;;6280675;28;20890;-54
2022/09/24 04:34:23;;;;;;;10.13;8.97;;;11.00;1.00;;;;;;6283980;28;20229;-54
2022/09/24 04:37:27;;;;;;;9.63;8.93;;;11.00;1.00;;;;;;6285358;28;20248;-55
2022/09/24 04:40:30;;;;;;;10.30;9.50;;;11.00;1.00;;;;;;6281616;28;20636;-54
2022/09/24 04:43:34;;;;;;;11.23;10.33;;;11.00;1.00;;;;;;6285755;28;20229;-53
2022/09/24 04:46:39;;;;;;;10.03;9.23;;;11.00;1.00;;;;;;6279949;28;20252;-54
2022/09/24 04:49:44;;;;;;;9.80;9.10;;;11.00;1.00;;;;;;6275243;28;20234;-53
2022/09/24 04:52:49;;;;;;;9.17;8.40;;;11.00;1.00;;;;;;6281182;28;20253;-53
2022/09/24 04:55:51;;;;;;;10.63;9.87;;;11.00;1.00;;;;;;6275252;28;20245;-53
2022/09/24 04:58:54;;;;;;;9.40;8.90;;;11.00;1.00;;;;;;6279860;28;20316;-55
2022/09/24 05:01:58;;;;;;;9.80;9.20;;;11.00;1.00;;;;;;6273592;28;20268;-54
2022/09/24 05:05:01;;;;;;;10.70;9.97;;;11.00;1.00;;;;;;6280590;28;20733;-54
2022/09/24 05:08:06;;;;;;;9.07;8.53;;;11.00;1.00;;;;;;6275645;28;20237;-54
2022/09/24 05:11:08;;;;;;;8.97;8.43;;;11.00;1.00;;;;;;6286221;28;20237;-55
2022/09/24 05:14:11;;;;;;;8.67;8.17;;;11.10;1.00;;;;;;6289329;28;20240;-54
2022/09/24 05:17:14;;;;;;;10.37;9.53;;;11.00;1.00;;;;;;6269047;28;20229;-53
2022/09/24 05:20:17;;;;;;;9.43;8.73;;;11.10;1.00;;;;;;6286661;28;20610;-54
2022/09/24 05:23:22;;;;;;;8.17;7.67;;;11.10;1.00;;;;;;6287146;28;20230;-54
2022/09/24 05:29:45;;;;;;;9.90;9.10;;;11.10;1.00;;;;;;6283031;28;20623;-53
2022/09/24 05:32:51;;;;;;;9.10;8.60;;;11.10;1.00;;;;;;6289148;28;20241;-59
2022/09/24 05:35:54;;;;;;;9.60;8.90;;;11.10;1.00;;;;;;6273698;28;20318;-59
2022/09/24 05:38:58;;;;;;;9.90;9.20;;;11.10;1.00;;;;;;6291074;28;20245;-55
2022/09/24 05:42:03;;;;;;;10.50;9.60;;;11.10;1.00;;;;;;6286892;28;20233;-54
2022/09/24 05:45:06;;;;;;;9.20;8.70;;;11.20;1.00;;;;;;6283855;28;20237;-53
2022/09/24 05:48:09;;;;;;;10.10;9.20;;;11.20;1.00;;;;;;6289873;28;20224;-54
2022/09/24 05:51:12;;;;;;;9.77;8.90;;;11.20;1.00;;;;;;6294759;28;20229;-54
2022/09/24 05:54:16;;;;;;;9.70;8.83;;;11.20;1.00;;;;;;6289758;28;20421;-55
2022/09/24 05:57:19;;;;;;;9.33;8.63;;;11.30;1.00;;;;;;6286445;28;20232;-54
2022/09/24 06:00:22;;;;;;;9.93;9.33;;;11.30;1.00;;;;;;6291067;28;20229;-54
2022/09/24 06:03:25;;;;;;;10.67;9.63;;;11.40;1.00;;;;;;6282748;28;20232;-54
2022/09/24 06:06:29;;;;;;;9.67;8.93;;;11.40;1.00;;;;;;6285275;28;20274;-52
2022/09/24 06:09:33;;;;;;;9.83;9.03;;;11.50;1.00;;;;;;6284058;28;20237;-53
2022/09/24 06:12:36;;;;;;;9.47;8.80;;;11.50;1.00;;;;;;6302070;28;20629;-55
2022/09/24 06:15:40;;;;;;;9.23;8.63;;;11.50;1.00;;;;;;6283789;28;20233;-54
2022/09/24 06:18:44;;;;;;;9.73;8.93;;;11.50;1.00;;;;;;6289684;28;20324;-54
2022/09/24 06:21:47;;;;;;;10.83;9.90;;;11.60;1.00;;;;;;6289545;28;20241;-54
2022/09/24 06:24:51;;;;;;;10.63;9.57;;;11.60;1.00;;;;;;6284513;28;20233;-54
2022/09/24 06:27:59;;;;;;;9.73;9.03;;;11.60;1.00;;;;;;6279535;28;20236;-55
2022/09/24 06:31:02;;;;;;;10.90;10.00;;;11.60;1.00;;;;;;6284651;28;20237;-54
2022/09/24 06:34:05;;;;;;;9.63;8.93;;;11.70;1.00;;;;;;6280399;28;20233;-54
2022/09/24 06:37:08;;;;;;;10.07;9.23;;;11.70;1.00;;;;;;6278616;28;20498;-53
2022/09/24 06:40:12;;;;;;;9.70;8.80;;;11.80;1.00;;;;;;6290342;28;20761;-54
2022/09/24 06:43:16;;;;;;;10.00;9.30;;;11.80;1.00;;;;;;6279833;28;20225;-54
2022/09/24 06:46:21;;;;;;;10.33;9.43;;;11.90;1.00;;;;;;6283026;28;20226;-53
2022/09/24 06:49:24;;;;;;;10.40;9.50;;;11.90;1.00;;;;;;6282651;28;20225;-54
2022/09/24 06:52:34;;;;;;;9.50;8.90;;;12.00;1.00;;;;;;6273597;28;20701;-54
2022/09/24 06:55:39;;;;;;;9.87;9.20;;;12.10;1.00;;;;;;6287398;28;20476;-54
2022/09/24 06:58:42;;;;;;;10.53;9.60;;;12.20;1.00;;;;;;6288862;28;20252;-54
2022/09/24 07:01:45;;;;;;;10.13;9.37;;;12.30;1.00;;;;;;6281240;28;20240;-54
2022/09/24 07:04:48;;;;;;;9.93;9.13;;;12.30;1.00;;;;;;6293510;28;20625;-54
2022/09/24 07:07:51;;;;;;;10.07;9.37;;;12.30;1.00;;;;;;6288348;28;20240;-55
2022/09/24 07:10:55;;;;;;;10.37;9.57;;;12.30;1.00;;;;;;6293057;28;20617;-53
2022/09/24 07:13:58;;;;;;;10.77;9.80;;;12.30;1.00;;;;;;6286838;28;20387;-54
2022/09/24 07:17:01;;;;;;;10.47;9.67;;;12.40;1.00;;;;;;6284934;28;20761;-54
2022/09/24 07:20:04;;;;;;;9.33;8.70;;;12.40;1.00;;;;;;6285334;28;20253;-52
2022/09/24 07:23:09;;;;;;;9.30;8.70;;;12.50;1.00;;;;;;6286992;28;20237;-53
2022/09/24 07:26:13;;;;;;;8.83;8.33;;;12.50;1.00;;;;;;6283483;28;20248;-53
2022/09/24 07:29:17;;;;;;;10.37;9.37;;;12.60;1.00;;;;;;6278732;28;20260;-54
2022/09/24 07:32:20;;;;;;;9.07;8.47;;;12.60;1.00;;;;;;6282677;28;20241;-54
2022/09/24 07:35:31;;;;;;;9.93;9.00;;;12.70;1.00;;;;;;6300934;28;20233;-53
2022/09/24 07:38:35;;;;;;;10.63;9.83;;;12.70;1.00;;;;;;6285688;28;20226;-56
2022/09/24 07:41:39;;;;;;;10.10;9.40;;;12.70;1.00;;;;;;6301503;28;20241;-53
2022/09/24 07:44:44;;;;;;;10.30;9.50;;;12.80;1.00;;;;;;6285116;28;20237;-55
2022/09/24 07:47:47;;;;;;;10.20;9.50;;;12.80;1.00;;;;;;6276911;28;20234;-55
2022/09/24 07:50:50;;;;;;;10.27;9.47;;;12.80;1.00;;;;;;6294212;28;20241;-54
2022/09/24 07:53:53;;;;;;;10.27;9.57;;;12.90;1.00;;;;;;6293045;28;20240;-55
2022/09/24 07:56:57;;;;;;;10.67;9.67;;;12.90;1.00;;;;;;6288387;28;20229;-55
2022/09/24 08:00:00;;;;;;;10.93;9.93;;;12.90;1.00;;;;;;6277221;28;20241;-54
2022/09/24 08:03:04;;;;;;;10.87;9.67;;;13.00;1.00;;;;;;6279730;28;20443;-54
2022/09/24 08:06:07;;;;;;;10.97;9.97;;;13.00;1.00;;;;;;6293057;28;20441;-55
2022/09/24 08:09:10;;;;;;;10.50;9.40;;;13.10;1.00;;;;;;6291775;28;20232;-53
2022/09/24 08:12:15;;;;;;;11.23;9.70;;;13.10;1.00;;;;;;6282681;28;20253;-54
2022/09/24 08:15:18;;;;;;;11.20;10.00;;;13.10;1.00;;;;;;6282001;28;21151;-53
2022/09/24 08:18:21;;;;;;;11.23;10.20;;;13.10;1.00;;;;;;6282200;28;20237;-54
2022/09/24 08:21:24;;;;;;;11.57;10.53;;;13.10;1.00;;;;;;6281855;28;20764;-53
2022/09/24 08:24:27;;;;;;;10.70;9.80;;;13.20;1.00;;;;;;6292402;28;20229;-53
2022/09/24 08:27:35;;;;;;;11.47;10.43;;;13.20;1.00;;;;;;6283017;28;20236;-54
2022/09/24 08:30:38;;;;;;;11.40;10.60;;;13.40;1.00;;;;;;6261597;28;20240;-54
2022/09/24 08:33:42;;;;;;;10.23;9.47;;;13.40;1.00;;;;;;6286193;28;20233;-54
2022/09/24 08:36:45;;;;;;;10.63;9.83;;;13.50;1.00;;;;;;6282669;28;20238;-54
2022/09/24 08:39:48;;;;;;;11.07;10.03;;;13.60;1.00;;;;;;6284767;28;20236;-53
2022/09/24 08:42:59;;;;;;;11.77;10.77;;;13.60;1.00;;;;;;6282151;28;20241;-54
2022/09/24 08:49:41;;;;;;;10.80;9.83;;;13.80;1.00;;;;;;6286851;28;20372;-54
2022/09/24 08:52:56;;;;;;;11.23;10.33;;;13.90;1.00;;;;;;6282157;28;20249;-54
2022/09/24 08:56:00;;;;;;;14.23;10.33;;;14.00;1.00;;;;;;6280225;28;20229;-53
2022/09/24 08:59:23;;;;;;;12.03;11.00;;;14.00;1.00;;;;;;6281607;28;20229;-54
2022/09/24 09:02:37;;;;;;;10.77;10.03;;;14.10;1.00;;;;;;6279762;28;20235;-54
2022/09/24 09:05:52;;;;;;;10.87;9.33;;;14.20;1.00;;;;;;6291914;28;20233;-53
2022/09/24 09:08:59;;;;;;;12.67;9.20;;;14.40;1.00;;;;;;6291657;28;20244;-55
2022/09/24 09:12:14;;;;;;;10.90;10.00;;;14.40;1.00;;;;;;6282565;28;20409;-53
2022/09/24 09:15:21;;;;;;;10.77;9.87;;;14.50;1.00;;;;;;6286612;28;20228;-53
2022/09/24 09:18:30;;;;;;;10.57;9.53;;;14.50;1.00;;;;;;6284898;28;20225;-54
2022/09/24 09:21:40;;;;;;;10.43;9.53;;;14.60;1.00;;;;;;6288341;28;20238;-54
2022/09/24 09:24:47;;;;;;;10.57;9.57;;;14.80;1.00;;;;;;6284594;28;20706;-54
2022/09/24 09:27:53;;;;;;;10.53;9.73;;;14.90;1.00;;;;;;6285389;28;20319;-54
2022/09/24 09:31:06;;;;;;;10.93;9.93;;;15.00;1.00;;;;;;6291361;28;20240;-53
2022/09/24 09:34:35;;;;;;;9.53;8.93;;;15.10;1.00;;;;;;6293357;28;20244;-54
2022/09/24 09:37:44;;;;;;;9.23;8.50;;;15.10;1.00;;;;;;6290479;28;20248;-54
2022/09/24 09:40:54;;;;;;;10.23;9.47;;;15.10;1.00;;;;;;6282032;28;20237;-54
2022/09/24 09:44:01;;;;;;;9.53;8.80;;;15.30;1.00;;;;;;6290298;28;20563;-54
2022/09/24 09:47:16;;;;;;;9.90;9.00;;;15.30;1.00;;;;;;6286181;28;20525;-52
2022/09/24 09:50:27;;;;;;;10.40;9.40;;;15.40;1.00;;;;;;6288872;28;20240;-54
2022/09/24 09:53:31;;;;;;;9.83;8.93;;;15.40;1.00;;;;;;6295983;28;20237;-54
2022/09/24 09:56:42;;;;;;;10.03;9.33;;;15.40;1.00;;;;;;6286338;28;20236;-55
2022/09/24 09:59:48;;;;;;;8.60;8.10;;;15.50;1.00;;;;;;6282559;28;20251;-53
2022/09/24 10:02:52;;;;;;;9.73;8.80;;;15.60;1.00;;;;;;6291315;28;20242;-54
2022/09/24 10:05:58;;;;;;;9.20;8.60;;;15.70;1.00;;;;;;6289868;28;20229;-54
2022/09/24 10:09:12;;;;;;;8.20;7.70;;;15.70;1.00;;;;;;6282433;28;20244;-55
2022/09/24 10:12:18;;;;;;;9.07;8.43;;;15.80;1.00;;;;;;6292883;28;20237;-54
2022/09/24 10:15:24;;;;;;;8.93;8.23;;;15.80;1.00;;;;;;6292889;28;20684;-54
2022/09/24 10:18:31;;;;;;;9.67;8.93;;;15.80;1.00;;;;;;6289564;28;20595;-54
2022/09/24 10:21:36;;;;;;;8.70;7.90;;;15.80;1.00;;;;;;6292270;28;20234;-54
2022/09/24 10:24:43;;;;;;;9.10;8.50;;;15.80;1.00;;;;;;6286686;28;20236;-54
2022/09/24 10:27:47;;;;;;;9.07;8.43;;;15.80;1.00;;;;;;6286608;28;20264;-55
2022/09/24 10:30:53;;;;;;;8.90;8.23;;;15.80;1.00;;;;;;6291532;28;20476;-53
2022/09/24 10:34:00;;;;;;;8.80;8.17;;;15.90;1.00;;;;;;6284873;28;20243;-54
2022/09/24 10:37:04;;;;;;;8.80;8.27;;;16.00;1.00;;;;;;6286010;28;20244;-54
2022/09/24 10:40:14;;;;;;;8.97;8.37;;;16.00;1.00;;;;;;6284754;28;20348;-54
2022/09/24 10:43:19;;;;;;;9.40;8.57;;;16.00;1.00;;;;;;6288077;28;20465;-54
2022/09/24 10:46:47;;;;;;;9.20;8.50;;;16.10;1.00;;;;;;6283036;28;20388;-56
2022/09/24 10:50:15;;;;;;;8.87;8.10;;;16.20;1.00;;;;;;6287244;28;20411;-54
2022/09/24 10:53:28;;;;;;;7.93;7.30;;;16.30;1.00;;;;;;6281771;28;20739;-55
2022/09/24 10:56:36;;;;;;;6.93;6.63;;;16.30;1.00;;;;;;6303579;28;20237;-54
2022/09/24 10:59:55;;;;;;;6.73;6.40;;;16.40;1.00;;;;;;6279040;28;20414;-53
2022/09/24 11:03:35;;;;;;;6.60;6.30;;;16.50;1.00;;;;;;6277452;28;20238;-54
2022/09/24 11:06:51;;;;;;;7.17;6.47;;;16.50;1.00;;;;;;6280843;28;20253;-59
2022/09/24 11:10:00;;;;;;;6.47;6.17;;;16.50;1.00;;;;;;6277933;28;20229;-55
2022/09/24 11:13:12;;;;;;;7.43;6.87;;;16.50;1.00;;;;;;6283576;28;20709;-55
2022/09/24 11:16:39;;;;;;;7.73;7.23;;;16.60;1.00;;;;;;6284992;28;20243;-53
2022/09/24 11:20:01;;;;;;;6.57;6.17;;;16.70;1.00;;;;;;6284752;28;20732;-53
2022/09/24 11:23:41;;;;;;;6.60;6.30;;;16.90;1.00;;;;;;6279645;28;20241;-56
2022/09/24 11:26:57;;;;;;;7.70;7.10;;;17.10;1.00;;;;;;6278417;28;20373;-54
2022/09/24 11:30:09;;;;;;;7.00;6.60;;;17.40;1.00;;;;;;6279443;28;20230;-54
2022/09/24 11:33:27;;;;;;;7.13;6.67;;;17.50;1.00;;;;;;6285261;28;20233;-54
2022/09/24 11:36:49;;;;;;;7.67;7.07;;;17.60;1.00;;;;;;6280991;28;20602;-53
2022/09/24 11:40:04;;;;;;;7.53;6.80;;;17.80;1.00;;;;;;6287720;28;20232;-53
2022/09/24 11:43:23;;;;;;;7.40;7.00;;;17.80;1.00;;;;;;6292546;28;20238;-53
2022/09/24 11:46:45;;;;;;;7.43;6.83;;;18.00;1.00;;;;;;6283313;28;20232;-54
2022/09/24 11:50:03;;;;;;;7.47;7.03;;;18.00;1.00;;;;;;6291585;28;20385;-54
2022/09/24 11:53:12;;;;;;;9.83;6.30;;;18.00;1.00;;;;;;6277030;28;20229;-53
2022/09/24 11:56:22;;;;;;;7.43;6.73;;;18.00;1.00;;;;;;6276926;28;20592;-55
2022/09/24 11:59:36;;;;;;;7.30;6.80;;;18.00;1.00;;;;;;6284082;28;20238;-53
2022/09/24 12:02:44;;;;;;;7.13;6.73;;;17.90;1.00;;;;;;6284479;28;20233;-54
2022/09/24 12:05:55;;;;;;;7.23;6.57;;;17.70;1.00;;;;;;6299545;28;20316;-55
2022/09/24 12:09:02;;;;;;;8.10;7.47;;;17.80;1.00;;;;;;6274560;28;20588;-55
2022/09/24 12:12:11;;;;;;;9.27;8.57;;;17.70;1.00;;;;;;6276104;28;20234;-54
2022/09/24 12:15:20;;;;;;;7.60;7.10;;;17.60;1.00;;;;;;6278116;28;20476;-54
2022/09/24 12:18:26;;;;;;;6.70;6.20;;;17.60;1.00;;;;;;6282944;28;20240;-54
2022/09/24 12:21:33;;;;;;;8.23;7.60;;;17.60;1.00;;;;;;6282301;28;20236;-54
2022/09/24 12:24:41;;;;;;;7.13;6.73;;;17.50;1.00;;;;;;6272170;28;20245;-60
2022/09/24 12:27:45;;;;;;;7.57;7.07;;;17.40;1.00;;;;;;6276007;28;20714;-55
2022/09/24 12:34:23;;;;;;;10.83;8.13;;;17.30;1.00;;;;;;6285844;28;20275;-53
2022/09/24 12:37:34;;;;;;;23.80;15.27;;;17.30;1.00;;;;;;6290283;28;20442;-53
2022/09/24 12:41:16;;;;;;;11.43;10.10;;;17.30;1.00;;;;;;6282598;28;20251;-54
2022/09/24 12:44:27;;;;;;;7.87;7.37;;;17.30;1.00;;;;;;6276311;28;20247;-53
2022/09/24 12:47:39;;;;;;;8.37;7.60;;;17.40;1.00;;;;;;6251708;28;20435;-52
2022/09/24 12:50:44;;;;;;;7.50;7.00;;;17.50;1.00;;;;;;6282796;28;20237;-54
2022/09/24 12:53:57;;;;;;;6.80;6.50;;;17.70;1.00;;;;;;6281279;28;20292;-54
2022/09/24 12:57:13;;;;;;;7.70;7.20;;;17.90;1.00;;;;;;6285906;28;20622;-53
2022/09/24 13:00:36;;;;;;;6.97;6.53;;;18.00;1.00;;;;;;6277175;28;20236;-53
2022/09/24 13:03:42;;;;;;;7.50;7.00;;;18.10;1.00;;;;;;6272421;28;20255;-53
2022/09/24 13:06:49;;;;;;;7.20;6.80;;;18.10;1.00;;;;;;6279785;28;20663;-53
2022/09/24 13:09:52;;;;;;;6.33;6.03;;;18.10;1.00;;;;;;6273584;28;20237;-54
2022/09/24 13:12:56;;;;;;;7.50;6.90;;;18.00;1.00;;;;;;6284653;28;20244;-53
2022/09/24 13:16:02;;;;;;;7.20;6.80;;;17.90;1.00;;;;;;6285612;28;20537;-53
2022/09/24 13:19:24;;;;;;;7.23;6.73;;;17.80;1.00;;;;;;6283133;28;20245;-54
2022/09/24 13:22:29;;;;;;;7.00;6.50;;;17.70;1.00;;;;;;6283500;28;20229;-54
2022/09/24 13:25:32;;;;;;;6.07;5.77;;;17.70;1.00;;;;;;6272993;28;20241;-54
2022/09/24 13:28:54;;;;;;;7.57;7.00;;;17.70;1.00;;;;;;6276651;28;20233;-54
2022/09/24 13:32:02;;;;;;;6.40;5.90;;;17.80;1.00;;;;;;6286749;28;20271;-55
2022/09/24 13:35:14;;;;;;;6.23;5.93;;;17.80;1.00;;;;;;6288761;28;20225;-55
2022/09/24 13:38:29;;;;;;;6.73;6.33;;;17.90;1.00;;;;;;6282949;28;20602;-54
2022/09/24 13:41:42;;;;;;;8.30;7.03;;;17.90;1.00;;;;;;6286979;28;20241;-53
2022/09/24 13:44:48;;;;;;;7.43;7.03;;;17.80;1.00;;;;;;6291046;28;20723;-53
2022/09/24 13:47:54;;;;;;;6.23;5.83;;;17.80;1.00;;;;;;6281761;28;20244;-54
2022/09/24 13:51:00;;;;;;;5.90;5.70;;;17.80;1.00;;;;;;6292251;28;20253;-54
2022/09/24 13:54:13;;;;;;;6.60;6.13;;;17.80;1.00;;;;;;6288471;28;20240;-52
2022/09/24 13:57:22;;;;;;;7.07;6.43;;;17.80;1.00;;;;;;6287163;28;20241;-54
2022/09/24 14:00:27;;;;;;;6.90;6.50;;;17.80;1.00;;;;;;6287263;28;20236;-54
2022/09/24 14:03:33;;;;;;;7.00;6.60;;;17.80;1.00;;;;;;6271404;28;20233;-53
2022/09/24 14:06:40;;;;;;;7.33;6.63;;;17.90;1.00;;;;;;6285917;28;20241;-53
2022/09/24 14:09:46;;;;;;;6.70;6.30;;;18.00;1.00;;;;;;6285907;28;20579;-54
2022/09/24 14:12:59;;;;;;;6.20;5.87;;;18.00;1.00;;;;;;6289960;28;20249;-55
2022/09/24 14:16:09;;;;;;;8.40;7.90;;;18.00;1.00;;;;;;6278706;28;20237;-54
2022/09/24 14:19:14;;;;;;;6.37;6.07;;;18.00;1.00;;;;;;6290257;28;20244;-53
2022/09/24 14:22:22;;;;;;;7.37;6.97;;;18.00;1.00;;;;;;6293483;28;20233;-56
2022/09/24 14:25:28;;;;;;;7.37;6.77;;;18.00;1.00;;;;;;6285703;28;20359;-53
2022/09/24 14:28:33;;;;;;;6.33;5.93;;;17.90;1.00;;;;;;6286857;28;20233;-54
2022/09/24 14:31:44;;;;;;;7.27;6.77;;;17.90;1.00;;;;;;6296721;28;20853;-61
2022/09/24 14:34:52;;;;;;;7.47;6.70;;;17.90;1.00;;;;;;6288495;28;20744;-54
2022/09/24 14:38:03;;;;;;;6.43;5.87;;;17.90;1.00;;;;;;6289064;28;20235;-56
2022/09/24 14:41:13;;;;;;;6.93;6.50;;;17.90;1.00;;;;;;6274024;28;20246;-55
2022/09/24 14:44:22;;;;;;;6.47;6.07;;;17.90;1.00;;;;;;6284880;28;20244;-54
2022/09/24 14:47:27;;;;;;;6.83;6.40;;;17.80;1.00;;;;;;6291104;28;20714;-54
2022/09/24 14:50:39;;;;;;;6.70;6.30;;;17.80;1.00;;;;;;6276455;28;20596;-55
2022/09/24 14:53:43;;;;;;;7.30;6.60;;;17.60;1.00;;;;;;6283785;28;20234;-54
2022/09/24 14:56:46;;;;;;;7.43;7.03;;;17.60;1.00;;;;;;6285411;28;20278;-54
2022/09/24 14:59:48;;;;;;;6.63;6.23;;;17.50;1.00;;;;;;6281455;28;20244;-55
2022/09/24 15:02:57;;;;;;;8.17;7.57;;;17.30;1.00;;;;;;6286376;28;20245;-55
2022/09/24 15:06:05;;;;;;;6.53;6.13;;;17.20;1.00;;;;;;6276451;28;20248;-53
2022/09/24 15:09:23;;;;;;;6.20;5.90;;;17.10;1.00;;;;;;6293471;28;20244;-55
2022/09/24 15:12:30;;;;;;;6.60;6.27;;;17.10;1.00;;;;;;6289841;28;20605;-55
2022/09/24 15:15:33;;;;;;;6.13;5.73;;;17.00;1.00;;;;;;6287882;28;20420;-55
2022/09/24 15:18:36;;;;;;;5.90;5.50;;;16.90;1.00;;;;;;6289151;28;20614;-54
2022/09/24 15:21:39;;;;;;;6.30;5.90;;;16.80;1.00;;;;;;6284574;28;20241;-55
2022/09/24 15:24:44;;;;;;;5.93;5.63;;;16.70;1.00;;;;;;6282801;28;20233;-54
2022/09/24 15:27:48;;;;;;;6.53;6.23;;;16.70;1.00;;;;;;6281810;28;20709;-54
2022/09/24 15:30:51;;;;;;;6.00;5.80;;;16.60;1.00;;;;;;6282513;28;20233;-55
2022/09/24 15:33:54;;;;;;;6.33;5.93;;;16.60;1.00;;;;;;6283076;28;20279;-55
2022/09/24 15:36:59;;;;;;;7.53;7.07;;;16.50;1.00;;;;;;6286774;28;20676;-57
2022/09/24 15:40:09;;;;;;;7.53;6.93;;;16.50;1.00;;;;;;6286074;28;20233;-52
2022/09/24 15:43:21;;;;;;;7.87;7.27;;;16.50;1.00;;;;;;6291692;28;20233;-54
2022/09/24 15:46:24;;;;;;;9.40;8.50;;;16.40;1.00;;;;;;6289713;28;20701;-54
2022/09/24 15:49:27;;;;;;;9.57;7.77;;;16.40;1.00;;;;;;6290095;28;20727;-54
2022/09/24 15:52:32;;;;;;;8.57;8.07;;;16.40;1.00;;;;;;6289422;28;20605;-54
2022/09/24 15:55:37;;;;;;;8.07;7.40;;;16.40;1.00;;;;;;6282771;28;20648;-55
2022/09/24 15:58:40;;;;;;;7.43;6.93;;;16.40;1.00;;;;;;6291975;28;20794;-54
2022/09/24 16:01:43;;;;;;;7.87;7.40;;;16.30;1.00;;;;;;6283341;28;20245;-54
2022/09/24 16:04:46;;;;;;;7.73;7.33;;;16.20;1.00;;;;;;6282376;28;20236;-53
2022/09/24 16:07:49;;;;;;;7.93;7.27;;;16.20;1.00;;;;;;6266340;28;20230;-54
2022/09/24 16:10:53;;;;;;;7.70;7.20;;;16.20;1.00;;;;;;6281498;28;20596;-54
2022/09/24 16:13:57;;;;;;;9.57;8.87;;;16.20;1.00;;;;;;6265815;28;20228;-54
2022/09/24 16:17:00;;;;;;;7.67;7.27;;;16.10;1.00;;;;;;6282076;28;20221;-54
2022/09/24 16:20:02;;;;;;;8.00;7.40;;;16.00;1.00;;;;;;6268457;28;20229;-54
2022/09/24 16:23:05;;;;;;;9.23;8.33;;;16.00;1.00;;;;;;6265446;28;20534;-55
2022/09/24 16:26:10;;;;;;;8.00;7.50;;;15.90;1.00;;;;;;6283140;28;20229;-54
2022/09/24 16:29:13;;;;;;;9.50;8.67;;;15.90;1.00;;;;;;6281026;28;20240;-55
2022/09/24 16:32:15;;;;;;;9.03;8.23;;;15.80;1.00;;;;;;6276845;28;20233;-55
2022/09/24 16:35:18;;;;;;;8.67;7.97;;;15.80;1.00;;;;;;6272388;28;20256;-56
2022/09/24 16:38:21;;;;;;;9.20;8.50;;;15.70;1.00;;;;;;6289365;28;20611;-54